Dingmans Ferry, PA

06:17 AM EDT on Marzu 23, 2017 (GMT -0400)
Milford Road | | Change Station

Elev 904 ft 41.23 °N, 74.91 °W | Updated 1 second ago

ċar
ċar
14.9 °F
Feels Like 15 °F
N
0.0
rih varjabbli rih from Grieg il-vant
Gusts 0.0 mph

Illum
High -- | Low -- °F
--% Chance of Precip.
Yesterday
High -- | Low -- °F
Precip. -- in
pressjoni 30.53 in
vizibilita 10.0 mili
s ċar
kesha tar-rih 15 °F
punt ta' nida 8 °F
umdita 73%
Rainfall 0.00 in
Snow Depth Not available.
6:57 AM 7:15 PM
Waning Crescent, 24% visible
METAR KFWN 230953Z AUTO VRB03KT 10SM CLR M08/M14 A3050 RMK AO2 SLP336 T10781144
pressjoni 30.53 in
vizibilita 10.0 mili
s ċar
kesha tar-rih 15 °F
punt ta' nida 8 °F
umdita 73%
Rainfall 0.00 in
Snow Depth Not available.
6:57 AM 7:15 PM
Waning Crescent, 24% visible
METAR KFWN 230953Z AUTO VRB03KT 10SM CLR M08/M14 A3050 RMK AO2 SLP336 T10781144

Get Severe Weather Alerts

Thanks for signing up!

Be on the lookout for a verification email in your inbox.

You'll start receiving the daily forecast at 8 AM.

×

10-Day Weather Forecast

Almanac

Astronomy

Mar. 23, 2017 Rise Set
Actual Time
Civil Twilight
Nautical Twilight
Astronomical Twilight
Moon
Length Of Visible Light
Length of Day
Tomorrow will be .
, % of the Moon is Illuminated

Today's Extremes

State Highs State Lows

Community

WunderPhotos

Upload Photos

1,962,540 photos uploaded!

WunderBlog® & News

Nearby

Air Quality

  Air Quality AQ Index Pollutant
Not available.

Snow Depth

Station Depth Elevation

Earthquake Activity

City Distance Mag. Time & Date
Minimum magnitude displayed is 2.5.

Earthquake Activity

City Distance Mag. Time & Date
Minimum magnitude displayed is 2.5.

Coastal Water Temperatures

Post temperatura

Stations

Nearby Weather Stations

Station Location Temp kesha tar-rih punt ta' nida umdita rih Precip. Elev aggornat Type
                   

Watches & Warnings

There are currently no watches in effect.